Aeroporto :
LOGIN :

Iscrizione | Disclaimer

   EN    FR    IT 

 










Sommario :    VFR   VFR Marginale   IFR   IFR Intensivo   IFR Molto Intensivo
Visibilità : 
Base nubi : 
>= 8 km
>= 3000ft
5 / 8 km
1000 / 3000 ft
1500m / 5 km
500 / 1000 ft
800 / 1500m
200 / 500 ft
< 800m
< 200 ft
Simboli :   Temporali  Nebbia  Neve Forte  Precipitazioni Forti  Vento > 20 kt
SIGMETs :   Varie  Temporali  Ghiacco  Turbolenza  Onda orograficha  Ceneri Vulcaniche






- Altitudine del aeroporto : 468 ft
- Codice IATA : GRO


LEGE - Girona Costa Brava

ULTIMO METAR :
  • 290430Z 04002KT CAVOK 13/13 Q1017 NOSIG

METARs OBSOLETI :
  • 290400Z 00000KT CAVOK 14/13 Q1018 NOSIG
  • 290330Z 03001KT CAVOK 14/13 Q1018 NOSIG
  • 290300Z 21001KT CAVOK 14/13 Q1018 NOSIG
  • 290230Z 00000KT CAVOK 15/14 Q1018 NOSIG
  • 290200Z 00000KT CAVOK 15/14 Q1018 NOSIG
  • 290130Z 22002KT CAVOK 14/13 Q1018 NOSIG
  • 290100Z VRB01KT CAVOK 15/14 Q1018 NOSIG
  • 290030Z 27002KT CAVOK 15/14 Q1018 NOSIG
  • 290000Z 00000KT CAVOK 16/15 Q1018 NOSIG

TAF TAF LEGE
Valido dal 29 a 00 ore il 30 a 00 ore UTC


282300Z 2900/2924 VRB04KT 9999 FEW040 TX29/2913Z TN15/2906Z
PROB30
TEMPO 2900/2906 3000 BR BKN009
PROB30
TEMPO 2900/2906 0900 FG VV002
BECMG 2909/2911 18009KT
BECMG 2918/2920 VRB04KT



MetMap, La meteo Aeronautica in un colpo d'occhio ! - Copyright ORBIFLY Dicembre 2007 - Disclaimer

ORBIFLY MET'MAP TEAM :

Programmazione e sviluppo : Alexandra Zaïnal
Concezione : Baudouin d'Aumeries
Supporto tecnico e logistico : Manuel Goepfert
Aiuto : Marc-Olivier Méhu
Aiuto per la traduzione : Arnaldo La Scala




FONTI E CREDITI :

   NOAA